sensor_id;sensor_type;location;lat;lon;timestamp;pressure;altitude;pressure_sealevel;temperature;humidity
58955;BME280;45815;52.334;5.024;2023-12-29T00:01:23;100602.16;;;9.36;100.00
58955;BME280;45815;52.334;5.024;2023-12-29T00:03:49;100603.88;;;9.34;100.00
58955;BME280;45815;52.334;5.024;2023-12-29T00:06:14;100601.31;;;9.37;100.00
58955;BME280;45815;52.334;5.024;2023-12-29T00:08:40;100591.75;;;9.39;100.00
58955;BME280;45815;52.334;5.024;2023-12-29T00:11:05;100580.47;;;9.43;100.00
58955;BME280;45815;52.334;5.024;2023-12-29T00:13:30;100579.69;;;9.47;100.00
58955;BME280;45815;52.334;5.024;2023-12-29T00:15:56;100585.78;;;9.46;100.00
58955;BME280;45815;52.334;5.024;2023-12-29T00:18:21;100587.53;;;9.46;100.00
58955;BME280;45815;52.334;5.024;2023-12-29T00:20:47;100579.50;;;9.38;100.00
58955;BME280;45815;52.334;5.024;2023-12-29T00:23:13;100582.28;;;9.46;100.00
58955;BME280;45815;52.334;5.024;2023-12-29T00:25:39;100577.94;;;9.46;100.00
58955;BME280;45815;52.334;5.024;2023-12-29T00:28:05;100577.06;;;9.47;100.00
58955;BME280;45815;52.334;5.024;2023-12-29T00:30:30;100557.03;;;9.49;100.00
58955;BME280;45815;52.334;5.024;2023-12-29T00:32:56;100574.53;;;9.50;100.00
58955;BME280;45815;52.334;5.024;2023-12-29T00:35:21;100556.88;;;9.43;100.00
58955;BME280;45815;52.334;5.024;2023-12-29T00:37:47;100554.34;;;9.46;100.00
58955;BME280;45815;52.334;5.024;2023-12-29T00:40:12;100553.41;;;9.43;100.00
58955;BME280;45815;52.334;5.024;2023-12-29T00:42:38;100549.91;;;9.42;100.00
58955;BME280;45815;52.334;5.024;2023-12-29T00:45:04;100556.00;;;9.43;100.00
58955;BME280;45815;52.334;5.024;2023-12-29T00:47:30;100552.38;;;9.35;100.00
58955;BME280;45815;52.334;5.024;2023-12-29T00:49:56;100552.47;;;9.41;100.00
58955;BME280;45815;52.334;5.024;2023-12-29T00:52:21;100543.75;;;9.40;100.00
58955;BME280;45815;52.334;5.024;2023-12-29T00:54:47;100550.78;;;9.43;100.00
58955;BME280;45815;52.334;5.024;2023-12-29T00:57:12;100555.13;;;9.42;100.00
58955;BME280;45815;52.334;5.024;2023-12-29T00:59:37;100554.19;;;9.39;100.00
58955;BME280;45815;52.334;5.024;2023-12-29T01:02:07;100536.72;;;9.38;100.00
58955;BME280;45815;52.334;5.024;2023-12-29T01:04:33;100549.94;;;9.45;100.00
58955;BME280;45815;52.334;5.024;2023-12-29T01:06:58;100543.00;;;9.46;100.00
58955;BME280;45815;52.334;5.024;2023-12-29T01:09:25;100535.19;;;9.49;100.00
58955;BME280;45815;52.334;5.024;2023-12-29T01:11:51;100537.84;;;9.50;100.00
58955;BME280;45815;52.334;5.024;2023-12-29T01:14:16;100534.41;;;9.55;100.00
58955;BME280;45815;52.334;5.024;2023-12-29T01:16:42;100536.19;;;9.56;100.00
58955;BME280;45815;52.334;5.024;2023-12-29T01:19:09;100532.66;;;9.55;100.00
58955;BME280;45815;52.334;5.024;2023-12-29T01:21:37;100519.56;;;9.55;100.00
58955;BME280;45815;52.334;5.024;2023-12-29T01:24:03;100538.00;;;9.61;100.00
58955;BME280;45815;52.334;5.024;2023-12-29T01:26:30;100526.69;;;9.62;100.00
58955;BME280;45815;52.334;5.024;2023-12-29T01:28:55;100538.06;;;9.63;100.00
58955;BME280;45815;52.334;5.024;2023-12-29T01:31:20;100533.69;;;9.63;100.00
58955;BME280;45815;52.334;5.024;2023-12-29T01:33:46;100522.34;;;9.63;100.00
58955;BME280;45815;52.334;5.024;2023-12-29T01:36:18;100522.38;;;9.66;100.00
58955;BME280;45815;52.334;5.024;2023-12-29T01:38:44;100536.34;;;9.65;100.00
58955;BME280;45815;52.334;5.024;2023-12-29T01:41:09;100527.63;;;9.66;100.00
58955;BME280;45815;52.334;5.024;2023-12-29T01:43:35;100525.03;;;9.69;100.00
58955;BME280;45815;52.334;5.024;2023-12-29T01:46:00;100507.56;;;9.68;100.00
58955;BME280;45815;52.334;5.024;2023-12-29T01:48:26;100517.19;;;9.69;100.00
58955;BME280;45815;52.334;5.024;2023-12-29T01:50:52;100527.66;;;9.69;100.00
58955;BME280;45815;52.334;5.024;2023-12-29T01:53:18;100522.41;;;9.67;100.00
58955;BME280;45815;52.334;5.024;2023-12-29T01:55:45;100525.91;;;9.68;100.00
58955;BME280;45815;52.334;5.024;2023-12-29T01:58:10;100534.69;;;9.70;100.00
58955;BME280;45815;52.334;5.024;2023-12-29T02:00:36;100544.22;;;9.66;100.00
58955;BME280;45815;52.334;5.024;2023-12-29T02:03:02;100547.72;;;9.65;100.00
58955;BME280;45815;52.334;5.024;2023-12-29T02:05:29;100540.75;;;9.67;100.00
58955;BME280;45815;52.334;5.024;2023-12-29T02:07:56;100531.16;;;9.68;100.00
58955;BME280;45815;52.334;5.024;2023-12-29T02:10:21;100547.66;;;9.64;100.00
58955;BME280;45815;52.334;5.024;2023-12-29T02:12:48;100555.56;;;9.65;100.00
58955;BME280;45815;52.334;5.024;2023-12-29T02:15:20;100543.28;;;9.63;100.00
58955;BME280;45815;52.334;5.024;2023-12-29T02:17:48;100541.56;;;9.63;100.00
58955;BME280;45815;52.334;5.024;2023-12-29T02:20:16;100541.50;;;9.62;100.00
58955;BME280;45815;52.334;5.024;2023-12-29T02:22:41;100542.50;;;9.67;100.00
58955;BME280;45815;52.334;5.024;2023-12-29T02:25:07;100542.44;;;9.64;100.00
58955;BME280;45815;52.334;5.024;2023-12-29T02:27:54;100542.34;;;9.59;100.00
58955;BME280;45815;52.334;5.024;2023-12-29T02:30:37;100546.75;;;9.62;100.00
58955;BME280;45815;52.334;5.024;2023-12-29T02:33:07;100547.75;;;9.67;100.00
58955;BME280;45815;52.334;5.024;2023-12-29T02:35:38;100546.88;;;9.68;100.00
58955;BME280;45815;52.334;5.024;2023-12-29T02:38:04;100529.31;;;9.64;100.00
58955;BME280;45815;52.334;5.024;2023-12-29T02:40:30;100528.56;;;9.69;100.00
58955;BME280;45815;52.334;5.024;2023-12-29T02:42:55;100528.56;;;9.71;100.00
58955;BME280;45815;52.334;5.024;2023-12-29T02:45:21;100530.31;;;9.70;100.00
58955;BME280;45815;52.334;5.024;2023-12-29T02:47:47;100532.06;;;9.71;100.00
58955;BME280;45815;52.334;5.024;2023-12-29T02:50:14;100527.75;;;9.72;100.00
58955;BME280;45815;52.334;5.024;2023-12-29T02:52:39;100522.50;;;9.72;100.00
58955;BME280;45815;52.334;5.024;2023-12-29T02:55:05;100532.81;;;9.63;100.00
58955;BME280;45815;52.334;5.024;2023-12-29T02:57:30;100541.63;;;9.68;100.00
58955;BME280;45815;52.334;5.024;2023-12-29T02:59:56;100527.66;;;9.69;100.00
58955;BME280;45815;52.334;5.024;2023-12-29T03:02:22;100538.16;;;9.69;100.00
58955;BME280;45815;52.334;5.024;2023-12-29T03:04:48;100542.56;;;9.71;100.00
58955;BME280;45815;52.334;5.024;2023-12-29T03:07:13;100542.63;;;9.75;100.00
58955;BME280;45815;52.334;5.024;2023-12-29T03:09:39;100558.34;;;9.75;100.00
58955;BME280;45815;52.334;5.024;2023-12-29T03:12:05;100560.97;;;9.76;100.00
58955;BME280;45815;52.334;5.024;2023-12-29T03:14:32;100539.22;;;9.79;100.00
58955;BME280;45815;52.334;5.024;2023-12-29T03:16:58;100553.19;;;9.81;100.00
58955;BME280;45815;52.334;5.024;2023-12-29T03:19:24;100557.56;;;9.80;100.00
58955;BME280;45815;52.334;5.024;2023-12-29T03:21:49;100552.31;;;9.80;100.00
58955;BME280;45815;52.334;5.024;2023-12-29T03:24:15;100535.59;;;9.73;100.00
58955;BME280;45815;52.334;5.024;2023-12-29T03:26:40;100540.06;;;9.78;100.00
58955;BME280;45815;52.334;5.024;2023-12-29T03:29:06;100545.34;;;9.79;100.00
58955;BME280;45815;52.334;5.024;2023-12-29T03:31:31;100543.63;;;9.81;100.00
58955;BME280;45815;52.334;5.024;2023-12-29T03:33:57;100543.63;;;9.81;100.00
58955;BME280;45815;52.334;5.024;2023-12-29T03:36:23;100540.09;;;9.79;100.00
58955;BME280;45815;52.334;5.024;2023-12-29T03:38:48;100536.56;;;9.77;100.00
58955;BME280;45815;52.334;5.024;2023-12-29T03:41:13;100524.28;;;9.76;100.00
58955;BME280;45815;52.334;5.024;2023-12-29T03:43:39;100522.59;;;9.78;100.00
58955;BME280;45815;52.334;5.024;2023-12-29T03:46:18;100521.53;;;9.68;100.00
58955;BME280;45815;52.334;5.024;2023-12-29T03:48:43;100511.19;;;9.76;100.00
58955;BME280;45815;52.334;5.024;2023-12-29T03:51:08;100522.53;;;9.75;100.00
58955;BME280;45815;52.334;5.024;2023-12-29T03:53:34;100500.69;;;9.76;100.00
58955;BME280;45815;52.334;5.024;2023-12-29T03:56:04;100498.03;;;9.73;100.00
58955;BME280;45815;52.334;5.024;2023-12-29T03:58:30;100498.94;;;9.75;100.00
58955;BME280;45815;52.334;5.024;2023-12-29T04:00:55;100475.38;;;9.75;100.00
58955;BME280;45815;52.334;5.024;2023-12-29T04:03:21;100485.84;;;9.75;100.00
58955;BME280;45815;52.334;5.024;2023-12-29T04:05:46;100484.09;;;9.74;100.00
58955;BME280;45815;52.334;5.024;2023-12-29T04:08:12;100488.44;;;9.73;100.00
58955;BME280;45815;52.334;5.024;2023-12-29T04:10:38;100485.84;;;9.75;100.00
58955;BME280;45815;52.334;5.024;2023-12-29T04:13:03;100495.38;;;9.70;100.00
58955;BME280;45815;52.334;5.024;2023-12-29T04:15:29;100491.91;;;9.72;100.00
58955;BME280;45815;52.334;5.024;2023-12-29T04:17:54;100503.28;;;9.73;100.00
58955;BME280;45815;52.334;5.024;2023-12-29T04:20:19;100483.19;;;9.73;100.00
58955;BME280;45815;52.334;5.024;2023-12-29T04:22:46;100503.25;;;9.70;100.00
58955;BME280;45815;52.334;5.024;2023-12-29T04:25:11;100491.03;;;9.72;100.00
58955;BME280;45815;52.334;5.024;2023-12-29T04:27:37;100495.38;;;9.71;100.00
58955;BME280;45815;52.334;5.024;2023-12-29T04:30:02;100481.25;;;9.62;100.00
58955;BME280;45815;52.334;5.024;2023-12-29T04:32:29;100490.19;;;9.73;100.00
58955;BME280;45815;52.334;5.024;2023-12-29T04:34:54;100500.63;;;9.71;100.00
58955;BME280;45815;52.334;5.024;2023-12-29T04:37:20;100500.63;;;9.70;100.00
58955;BME280;45815;52.334;5.024;2023-12-29T04:39:46;100498.00;;;9.70;100.00
58955;BME280;45815;52.334;5.024;2023-12-29T04:42:11;100498.00;;;9.70;100.00
58955;BME280;45815;52.334;5.024;2023-12-29T04:44:37;100494.47;;;9.68;100.00
58955;BME280;45815;52.334;5.024;2023-12-29T04:47:02;100491.88;;;9.71;100.00
58955;BME280;45815;52.334;5.024;2023-12-29T04:49:28;100493.66;;;9.72;100.00
58955;BME280;45815;52.334;5.024;2023-12-29T04:51:53;100499.81;;;9.74;100.00
58955;BME280;45815;52.334;5.024;2023-12-29T04:54:18;100499.81;;;9.74;100.00
58955;BME280;45815;52.334;5.024;2023-12-29T04:56:44;100502.44;;;9.76;100.00
58955;BME280;45815;52.334;5.024;2023-12-29T04:59:09;100504.22;;;9.78;100.00
58955;BME280;45815;52.334;5.024;2023-12-29T05:01:34;100491.13;;;9.78;100.00
58955;BME280;45815;52.334;5.024;2023-12-29T05:04:00;100497.22;;;9.76;100.00
58955;BME280;45815;52.334;5.024;2023-12-29T05:06:25;100485.88;;;9.78;100.00
58955;BME280;45815;52.334;5.024;2023-12-29T05:08:51;100497.31;;;9.82;100.00
58955;BME280;45815;52.334;5.024;2023-12-29T05:11:16;100496.44;;;9.81;100.00
58955;BME280;45815;52.334;5.024;2023-12-29T05:13:41;100510.47;;;9.83;100.00
58955;BME280;45815;52.334;5.024;2023-12-29T05:16:07;100509.56;;;9.81;100.00
58955;BME280;45815;52.334;5.024;2023-12-29T05:18:32;100500.84;;;9.85;100.00
58955;BME280;45815;52.334;5.024;2023-12-29T05:20:58;100507.84;;;9.83;100.00
58955;BME280;45815;52.334;5.024;2023-12-29T05:23:23;100495.66;;;9.87;100.00
58955;BME280;45815;52.334;5.024;2023-12-29T05:25:48;100501.72;;;9.84;100.00
58955;BME280;45815;52.334;5.024;2023-12-29T05:28:14;100487.75;;;9.85;100.00
58955;BME280;45815;52.334;5.024;2023-12-29T05:30:39;100499.19;;;9.89;100.00
58955;BME280;45815;52.334;5.024;2023-12-29T05:33:04;100500.94;;;9.90;100.00
58955;BME280;45815;52.334;5.024;2023-12-29T05:35:30;100493.06;;;9.88;100.00
58955;BME280;45815;52.334;5.024;2023-12-29T05:37:55;100498.31;;;9.88;100.00
58955;BME280;45815;52.334;5.024;2023-12-29T05:40:21;100480.75;;;9.84;100.00
58955;BME280;45815;52.334;5.024;2023-12-29T05:42:46;100486.09;;;9.90;100.00
58955;BME280;45815;52.334;5.024;2023-12-29T05:45:12;100492.16;;;9.88;100.00
58955;BME280;45815;52.334;5.024;2023-12-29T05:47:37;100500.09;;;9.92;100.00
58955;BME280;45815;52.334;5.024;2023-12-29T05:50:03;100493.09;;;9.91;100.00
58955;BME280;45815;52.334;5.024;2023-12-29T05:52:28;100494.94;;;9.96;100.00
58955;BME280;45815;52.334;5.024;2023-12-29T05:54:54;100491.38;;;9.93;100.00
58955;BME280;45815;52.334;5.024;2023-12-29T05:57:19;100487.06;;;9.96;100.00
58955;BME280;45815;52.334;5.024;2023-12-29T05:59:45;100480.94;;;9.97;100.00
58955;BME280;45815;52.334;5.024;2023-12-29T06:02:10;100468.75;;;9.99;100.00
58955;BME280;45815;52.334;5.024;2023-12-29T06:04:36;100472.25;;;9.98;100.00
58955;BME280;45815;52.334;5.024;2023-12-29T06:07:01;100472.25;;;9.99;100.00
58955;BME280;45815;52.334;5.024;2023-12-29T06:09:26;100468.81;;;10.03;100.00
58955;BME280;45815;52.334;5.024;2023-12-29T06:11:52;100460.91;;;10.02;100.00
58955;BME280;45815;52.334;5.024;2023-12-29T06:14:17;100464.44;;;10.04;100.00
58955;BME280;45815;52.334;5.024;2023-12-29T06:16:43;100470.56;;;10.03;100.00
58955;BME280;45815;52.334;5.024;2023-12-29T06:19:08;100467.06;;;10.04;100.00
58955;BME280;45815;52.334;5.024;2023-12-29T06:21:43;100453.16;;;10.08;100.00
58955;BME280;45815;52.334;5.024;2023-12-29T06:24:11;100454.88;;;10.06;100.00
58955;BME280;45815;52.334;5.024;2023-12-29T06:26:37;100453.16;;;10.08;100.00
58955;BME280;45815;52.334;5.024;2023-12-29T06:29:09;100451.34;;;10.04;100.00
58955;BME280;45815;52.334;5.024;2023-12-29T06:31:34;100444.41;;;10.09;100.00
58955;BME280;45815;52.334;5.024;2023-12-29T06:34:00;100452.31;;;10.10;100.00
58955;BME280;45815;52.334;5.024;2023-12-29T06:36:25;100468.00;;;10.09;100.00
58955;BME280;45815;52.334;5.024;2023-12-29T06:38:51;100465.38;;;10.09;100.00
58955;BME280;45815;52.334;5.024;2023-12-29T06:41:18;100473.25;;;10.09;100.00
58955;BME280;45815;52.334;5.024;2023-12-29T06:43:44;100454.72;;;9.97;100.00
58955;BME280;45815;52.334;5.024;2023-12-29T06:46:11;100490.63;;;10.01;100.00
58955;BME280;45815;52.334;5.024;2023-12-29T06:48:37;100490.66;;;10.02;100.00
58955;BME280;45815;52.334;5.024;2023-12-29T06:51:03;100498.53;;;10.04;100.00
58955;BME280;45815;52.334;5.024;2023-12-29T06:53:29;100502.91;;;10.03;100.00
58955;BME280;45815;52.334;5.024;2023-12-29T06:55:54;100500.25;;;10.02;100.00
58955;BME280;45815;52.334;5.024;2023-12-29T06:58:19;100510.81;;;10.05;100.00
58955;BME280;45815;52.334;5.024;2023-12-29T07:00:45;100512.56;;;10.06;100.00
58955;BME280;45815;52.334;5.024;2023-12-29T07:03:14;100509.91;;;10.04;100.00
58955;BME280;45815;52.334;5.024;2023-12-29T07:05:40;100503.84;;;10.07;100.00
58955;BME280;45815;52.334;5.024;2023-12-29T07:08:05;100502.06;;;10.06;100.00
58955;BME280;45815;52.334;5.024;2023-12-29T07:10:31;100488.94;;;10.06;100.00
58955;BME280;45815;52.334;5.024;2023-12-29T07:12:56;100509.91;;;10.04;100.00
58955;BME280;45815;52.334;5.024;2023-12-29T07:15:22;100507.28;;;10.03;100.00
58955;BME280;45815;52.334;5.024;2023-12-29T07:17:48;100507.28;;;10.03;100.00
58955;BME280;45815;52.334;5.024;2023-12-29T07:20:13;100503.78;;;10.04;100.00
58955;BME280;45815;52.334;5.024;2023-12-29T07:22:39;100495.00;;;10.02;100.00
58955;BME280;45815;52.334;5.024;2023-12-29T07:25:04;100498.53;;;10.04;100.00
58955;BME280;45815;52.334;5.024;2023-12-29T07:27:30;100493.34;;;10.07;100.00
58955;BME280;45815;52.334;5.024;2023-12-29T07:29:55;100506.44;;;10.05;100.00
58955;BME280;45815;52.334;5.024;2023-12-29T07:32:21;100504.69;;;10.06;100.00
58955;BME280;45815;52.334;5.024;2023-12-29T07:34:46;100508.19;;;10.06;100.00
58955;BME280;45815;52.334;5.024;2023-12-29T07:37:12;100509.97;;;10.07;100.00
58955;BME280;45815;52.334;5.024;2023-12-29T07:39:38;100509.13;;;10.10;100.00
58955;BME280;45815;52.334;5.024;2023-12-29T07:42:03;100513.47;;;10.08;100.00
58955;BME280;45815;52.334;5.024;2023-12-29T07:44:30;100524.88;;;10.10;100.00
58955;BME280;45815;52.334;5.024;2023-12-29T07:46:59;100513.50;;;10.11;100.00
58955;BME280;45815;52.334;5.024;2023-12-29T07:49:24;100511.78;;;10.13;100.00
58955;BME280;45815;52.334;5.024;2023-12-29T07:51:50;100514.38;;;10.10;100.00
58955;BME280;45815;52.334;5.024;2023-12-29T07:54:16;100512.66;;;10.12;100.00
58955;BME280;45815;52.334;5.024;2023-12-29T07:56:41;100518.81;;;10.14;100.00
58955;BME280;45815;52.334;5.024;2023-12-29T07:59:07;100506.47;;;10.07;100.00
58955;BME280;45815;52.334;5.024;2023-12-29T08:01:33;100515.22;;;10.09;100.00
58955;BME280;45815;52.334;5.024;2023-12-29T08:03:59;100516.97;;;10.08;100.00
58955;BME280;45815;52.334;5.024;2023-12-29T08:06:24;100516.13;;;10.11;100.00
58955;BME280;45815;52.334;5.024;2023-12-29T08:08:50;100525.75;;;10.10;100.00
58955;BME280;45815;52.334;5.024;2023-12-29T08:11:15;100520.53;;;10.12;100.00
58955;BME280;45815;52.334;5.024;2023-12-29T08:13:43;100514.41;;;10.13;100.00
58955;BME280;45815;52.334;5.024;2023-12-29T08:16:09;100521.38;;;10.11;100.00
58955;BME280;45815;52.334;5.024;2023-12-29T08:18:34;100527.53;;;10.13;100.00
58955;BME280;45815;52.334;5.024;2023-12-29T08:21:00;100524.06;;;10.15;100.00
58955;BME280;45815;52.334;5.024;2023-12-29T08:23:25;100528.44;;;10.15;100.00
58955;BME280;45815;52.334;5.024;2023-12-29T08:25:52;100534.56;;;10.14;100.00
58955;BME280;45815;52.334;5.024;2023-12-29T08:28:18;100524.94;;;10.14;100.00
58955;BME280;45815;52.334;5.024;2023-12-29T08:30:43;100536.34;;;10.17;100.00
58955;BME280;45815;52.334;5.024;2023-12-29T08:33:11;100531.09;;;10.17;100.00
58955;BME280;45815;52.334;5.024;2023-12-29T08:35:38;100521.50;;;10.20;100.00
58955;BME280;45815;52.334;5.024;2023-12-29T08:38:03;100533.78;;;10.21;100.00
58955;BME280;45815;52.334;5.024;2023-12-29T08:40:29;100516.25;;;10.20;100.00
58955;BME280;45815;52.334;5.024;2023-12-29T08:42:54;100518.06;;;10.21;100.00
58955;BME280;45815;52.334;5.024;2023-12-29T08:45:20;100527.63;;;10.21;100.00
58955;BME280;45815;52.334;5.024;2023-12-29T08:47:45;100527.63;;;10.21;100.00
58955;BME280;45815;52.334;5.024;2023-12-29T08:50:11;100536.38;;;10.20;100.00
58955;BME280;45815;52.334;5.024;2023-12-29T08:52:36;100524.13;;;10.20;100.00
58955;BME280;45815;52.334;5.024;2023-12-29T08:55:02;100522.41;;;10.22;100.00
58955;BME280;45815;52.334;5.024;2023-12-29T08:57:27;100518.97;;;10.25;100.00
58955;BME280;45815;52.334;5.024;2023-12-29T08:59:53;100514.63;;;10.27;100.00
58955;BME280;45815;52.334;5.024;2023-12-29T09:02:18;100523.38;;;10.27;100.00
58955;BME280;45815;52.334;5.024;2023-12-29T09:04:43;100518.22;;;10.30;100.00
58955;BME280;45815;52.334;5.024;2023-12-29T09:07:09;100512.97;;;10.30;100.00
58955;BME280;45815;52.334;5.024;2023-12-29T09:09:34;100511.09;;;10.25;100.00
58955;BME280;45815;52.334;5.024;2023-12-29T09:11:59;100511.13;;;10.26;100.00
58955;BME280;45815;52.334;5.024;2023-12-29T09:14:25;100523.47;;;10.30;100.00
58955;BME280;45815;52.334;5.024;2023-12-29T09:16:50;100526.94;;;10.29;100.00
58955;BME280;45815;52.334;5.024;2023-12-29T09:19:16;100525.19;;;10.30;100.00
58955;BME280;45815;52.334;5.024;2023-12-29T09:21:41;100528.72;;;10.30;100.00
58955;BME280;45815;52.334;5.024;2023-12-29T09:24:07;100506.66;;;10.19;100.00
58955;BME280;45815;52.334;5.024;2023-12-29T09:26:32;100510.22;;;10.24;100.00
58955;BME280;45815;52.334;5.024;2023-12-29T09:28:58;100532.94;;;10.24;100.00
58955;BME280;45815;52.334;5.024;2023-12-29T09:31:24;100525.13;;;10.27;100.00
58955;BME280;45815;52.334;5.024;2023-12-29T09:33:49;100535.75;;;10.33;100.00
58955;BME280;45815;52.334;5.024;2023-12-29T09:36:14;100537.53;;;10.35;100.00
58955;BME280;45815;52.334;5.024;2023-12-29T09:38:40;100541.03;;;10.36;100.00
58955;BME280;45815;52.334;5.024;2023-12-29T09:41:11;100551.41;;;10.30;100.00
58955;BME280;45815;52.334;5.024;2023-12-29T09:43:40;100547.13;;;10.33;100.00
58955;BME280;45815;52.334;5.024;2023-12-29T09:46:07;100554.16;;;10.36;100.00
58955;BME280;45815;52.334;5.024;2023-12-29T09:48:34;100540.81;;;10.25;100.00
58955;BME280;45815;52.334;5.024;2023-12-29T09:51:01;100566.38;;;10.35;100.00
58955;BME280;45815;52.334;5.024;2023-12-29T09:53:27;100566.47;;;10.40;100.00
58955;BME280;45815;52.334;5.024;2023-12-29T09:55:53;100596.09;;;10.34;100.00
58955;BME280;45815;52.334;5.024;2023-12-29T09:58:22;100593.28;;;10.25;100.00
58955;BME280;45815;52.334;5.024;2023-12-29T10:00:49;100589.66;;;10.17;100.00
58955;BME280;45815;52.334;5.024;2023-12-29T10:03:15;100594.00;;;10.15;100.00
58955;BME280;45815;52.334;5.024;2023-12-29T10:05:41;100581.00;;;10.21;100.00
58955;BME280;45815;52.334;5.024;2023-12-29T10:08:07;100571.34;;;10.20;100.00
58955;BME280;45815;52.334;5.024;2023-12-29T10:10:35;100580.09;;;10.21;100.00
58955;BME280;45815;52.334;5.024;2023-12-29T10:13:04;100593.25;;;10.22;100.00
58955;BME280;45815;52.334;5.024;2023-12-29T10:16:15;100594.13;;;10.23;100.00
58955;BME280;45815;52.334;5.024;2023-12-29T10:21:37;100602.91;;;10.25;100.00
58955;BME280;45815;52.334;5.024;2023-12-29T10:24:21;100597.81;;;10.31;100.00
58955;BME280;45815;52.334;5.024;2023-12-29T10:26:47;100602.25;;;10.35;100.00
58955;BME280;45815;52.334;5.024;2023-12-29T10:29:12;100594.25;;;10.29;100.00
58955;BME280;45815;52.334;5.024;2023-12-29T10:31:38;100598.72;;;10.34;100.00
58955;BME280;45815;52.334;5.024;2023-12-29T10:34:24;100608.28;;;10.31;100.00
58955;BME280;45815;52.334;5.024;2023-12-29T10:36:55;100613.63;;;10.35;100.00
58955;BME280;45815;52.334;5.024;2023-12-29T10:39:20;100589.75;;;10.22;100.00
58955;BME280;45815;52.334;5.024;2023-12-29T10:41:46;100592.59;;;10.34;100.00
58955;BME280;45815;52.334;5.024;2023-12-29T10:44:11;100603.09;;;10.34;100.00
58955;BME280;45815;52.334;5.024;2023-12-29T10:46:37;100614.50;;;10.36;100.00
58955;BME280;45815;52.334;5.024;2023-12-29T10:49:10;100613.66;;;10.39;100.00
58955;BME280;45815;52.334;5.024;2023-12-29T10:51:36;100597.19;;;10.47;100.00
58955;BME280;45815;52.334;5.024;2023-12-29T10:54:02;100602.41;;;10.46;100.00
58955;BME280;45815;52.334;5.024;2023-12-29T10:56:28;100609.50;;;10.53;100.00
58955;BME280;45815;52.334;5.024;2023-12-29T10:59:05;100599.97;;;10.60;100.00
58955;BME280;45815;52.334;5.024;2023-12-29T11:01:32;100592.28;;;10.70;100.00
58955;BME280;45815;52.334;5.024;2023-12-29T11:04:03;100609.00;;;10.77;100.00
58955;BME280;45815;52.334;5.024;2023-12-29T11:06:30;100598.56;;;10.83;100.00
58955;BME280;45815;52.334;5.024;2023-12-29T11:09:04;100599.44;;;10.84;100.00
58955;BME280;45815;52.334;5.024;2023-12-29T11:11:31;100599.50;;;10.87;100.00
58955;BME280;45815;52.334;5.024;2023-12-29T11:13:57;100603.81;;;10.82;100.00
58955;BME280;45815;52.334;5.024;2023-12-29T11:16:24;100603.94;;;10.91;100.00
58955;BME280;45815;52.334;5.024;2023-12-29T11:18:49;100603.19;;;10.98;100.00
58955;BME280;45815;52.334;5.024;2023-12-29T11:21:20;100614.50;;;10.94;100.00
58955;BME280;45815;52.334;5.024;2023-12-29T11:23:47;100589.72;;;10.76;100.00
58955;BME280;45815;52.334;5.024;2023-12-29T11:26:12;100610.84;;;10.86;100.00
58955;BME280;45815;52.334;5.024;2023-12-29T11:28:39;100621.44;;;10.89;100.00
58955;BME280;45815;52.334;5.024;2023-12-29T11:31:04;100616.25;;;10.93;100.00
58955;BME280;45815;52.334;5.024;2023-12-29T11:33:38;100615.41;;;10.96;100.00
58955;BME280;45815;52.334;5.024;2023-12-29T11:36:11;100632.88;;;10.95;100.00
58955;BME280;45815;52.334;5.024;2023-12-29T11:38:51;100617.78;;;10.81;100.00
58955;BME280;45815;52.334;5.024;2023-12-29T11:43:55;100623.84;;;10.76;100.00
58955;BME280;45815;52.334;5.024;2023-12-29T11:46:38;100630.94;;;10.81;100.00
58955;BME280;45815;52.334;5.024;2023-12-29T11:49:05;100625.81;;;10.90;100.00
58955;BME280;45815;52.334;5.024;2023-12-29T11:54:04;100622.28;;;10.88;100.00
58955;BME280;45815;52.334;5.024;2023-12-29T11:56:31;100629.34;;;10.92;100.00
58955;BME280;45815;52.334;5.024;2023-12-29T11:59:12;100622.06;;;10.74;100.00
58955;BME280;45815;52.334;5.024;2023-12-29T12:01:37;100623.97;;;10.83;100.00
58955;BME280;45815;52.334;5.024;2023-12-29T12:04:03;100622.28;;;10.88;100.00
58955;BME280;45815;52.334;5.024;2023-12-29T12:06:38;100623.19;;;10.90;100.00
58955;BME280;45815;52.334;5.024;2023-12-29T12:09:22;100612.66;;;10.88;100.00
58955;BME280;45815;52.334;5.024;2023-12-29T12:11:48;100610.66;;;10.72;100.00
58955;BME280;45815;52.334;5.024;2023-12-29T12:14:46;100609.94;;;10.84;100.00
58955;BME280;45815;52.334;5.024;2023-12-29T12:17:26;100617.03;;;10.88;100.00
58955;BME280;45815;52.334;5.024;2023-12-29T12:20:16;100609.22;;;10.92;100.00
58955;BME280;45815;52.334;5.024;2023-12-29T12:22:43;100594.13;;;10.77;100.00
58955;BME280;45815;52.334;5.024;2023-12-29T12:25:11;100603.06;;;10.89;100.00
58955;BME280;45815;52.334;5.024;2023-12-29T12:27:38;100611.03;;;10.96;100.00
58955;BME280;45815;52.334;5.024;2023-12-29T12:30:04;100611.94;;;11.00;100.00
58955;BME280;45815;52.334;5.024;2023-12-29T12:32:30;100603.13;;;10.95;100.00
58955;BME280;45815;52.334;5.024;2023-12-29T12:34:56;100588.19;;;10.92;100.00
58955;BME280;45815;52.334;5.024;2023-12-29T12:37:26;100598.56;;;10.83;100.00
58955;BME280;45815;52.334;5.024;2023-12-29T12:39:52;100595.88;;;10.78;100.00
58955;BME280;45815;52.334;5.024;2023-12-29T12:42:19;100599.38;;;10.77;100.00
58955;BME280;45815;52.334;5.024;2023-12-29T12:45:12;100600.22;;;10.75;100.00
58955;BME280;45815;52.334;5.024;2023-12-29T12:47:44;100598.53;;;10.80;100.00
58955;BME280;45815;52.334;5.024;2023-12-29T12:50:12;100578.41;;;10.81;100.00
58955;BME280;45815;52.334;5.024;2023-12-29T12:52:38;100578.53;;;10.90;100.00